La Cueva, New Mexico
Current Conditions -  °F | °C
As of 8:53 AM on Sunday 25 Jan 2015 (Local Time) from KSAF Reporting Station
Clear Clear  
Wind Chill: 25°   Ceiling: Unl
Heat Index: 32°   Visibility: 10mi
Dew Point: 17°   Wind: 8mph
Humidity: 54%   Direction: 30°NNE
Pressure: 30.29"   Gusts: NA
Location:  35.6111°N, 105.774°W
Report Text: KSAF 251553Z 03007KT 10SM CLR 00/M08 A3029 RMK AO2 SLP252 T00001083
Loading
Personal Weather Stations






























Interactive Weather Map New forecast layout! Learn more

10-Day Weather Forecast

Advertisements
Track Severe Weather on mobile